Terminal Aerodrome Forecast
Issued by NWS

Home | Current Version | Previous Version | Text Only | Print | Product List | Glossary On
Versions: 1 2 3 4 5 6 7 8 9 10 11 12 13 14 15 16 17 18
000
FTUS43 KTOP 080520
TAFFOE
TAF
KFOE 080520Z 0806/0906 02005KT P6SM -SHRA SCT035 BKN060
     FM081100 05002KT 5SM -SHRA BR SCT013 OVC023
     FM081400 03010KT 3SM -RA BR BKN008
     FM081800 03010KT P6SM OVC025
     FM090000 05003KT P6SM BKN050=

USA.gov is the U.S. government's official web portal to all federal, state and local government web resources and services.